Time;durP1;ratioP1;P1;durP2;ratioP2;P2;SDS_P1;SDS_P2;PMS_P1;PMS_P2;Temp;Humidity;BMP_temperature;BMP_pressure;BME280_temperature;BME280_humidity;BME280_pressure;Samples;Min_cycle;Max_cycle;Signal;HPM_P1;HPM_P2
2024/03/21 00:00:11;;;;;;;27.67;19.08;;;;;;;13.51;100.00;101092.13;4956593;28;20051;-83
2024/03/21 00:02:46;;;;;;;28.02;18.35;;;;;;;13.51;100.00;101097.41;4968412;28;20150;-82
2024/03/21 00:05:14;;;;;;;26.52;18.70;;;;;;;13.52;100.00;101100.91;4956273;28;20047;-81
2024/03/21 00:07:45;;;;;;;30.70;18.00;;;;;;;13.51;100.00;101096.53;4953897;28;20079;-83
2024/03/21 00:10:13;;;;;;;22.52;18.20;;;;;;;13.49;100.00;101098.31;4955932;28;20043;-81
2024/03/21 00:12:40;;;;;;;20.60;15.52;;;;;;;13.46;100.00;101101.84;4943342;28;20485;-82
2024/03/21 00:15:08;;;;;;;28.35;20.13;;;;;;;13.45;100.00;101104.50;4956206;28;20105;-82
2024/03/21 00:17:35;;;;;;;23.95;18.38;;;;;;;13.42;100.00;101105.41;4968755;28;20414;-84
2024/03/21 00:20:09;;;;;;;23.33;16.98;;;;;;;13.39;100.00;101102.84;4962716;28;20466;-82
2024/03/21 00:22:45;;;;;;;26.42;19.25;;;;;;;13.37;100.00;101104.63;4952713;28;20058;-84
2024/03/21 00:25:18;;;;;;;22.92;17.42;;;;;;;13.36;100.00;101103.75;4953019;28;20047;-83
2024/03/21 00:27:45;;;;;;;24.08;19.35;;;;;;;13.36;100.00;101098.50;4953405;28;20062;-82
2024/03/21 00:30:12;;;;;;;24.17;16.13;;;;;;;13.37;100.00;101094.94;4940017;28;20066;-82
2024/03/21 00:32:37;;;;;;;26.75;20.60;;;;;;;13.35;100.00;101093.19;4965564;28;20051;-82
2024/03/21 00:35:05;;;;;;;25.75;20.50;;;;;;;13.31;100.00;101089.78;4963515;28;20127;-83
2024/03/21 00:37:32;;;;;;;25.27;18.58;;;;;;;13.31;100.00;101091.50;4960015;28;20047;-83
2024/03/21 00:39:58;;;;;;;26.63;17.58;;;;;;;13.30;100.00;101081.91;4938960;28;20050;-82
2024/03/21 00:42:27;;;;;;;21.58;16.45;;;;;;;13.31;100.00;101086.25;4950527;28;20446;-82
2024/03/21 00:44:54;;;;;;;20.65;17.08;;;;;;;13.33;100.00;101085.34;4960625;28;20091;-82
2024/03/21 00:47:19;;;;;;;23.95;16.30;;;;;;;13.34;100.00;101084.44;4952968;28;20633;-83
2024/03/21 00:49:46;;;;;;;23.83;17.27;;;;;;;13.31;100.00;101078.38;4958837;28;20511;-83
2024/03/21 00:52:13;;;;;;;27.25;18.35;;;;;;;13.26;100.00;101070.56;4941996;28;20051;-82
2024/03/21 00:54:41;;;;;;;28.23;20.00;;;;;;;13.17;100.00;101062.78;4955842;28;20062;-82
2024/03/21 00:57:07;;;;;;;26.05;19.55;;;;;;;13.10;100.00;101061.13;4942333;28;20760;-82
2024/03/21 00:59:34;;;;;;;28.13;19.50;;;;;;;13.02;100.00;101070.00;4946236;28;20042;-83
2024/03/21 01:02:07;;;;;;;19.20;17.17;;;;;;;12.98;100.00;101060.38;4952598;28;20134;-82
2024/03/21 01:04:34;;;;;;;23.92;18.77;;;;;;;12.93;100.00;101062.19;4955275;28;20685;-82
2024/03/21 01:07:00;;;;;;;24.15;19.60;;;;;;;12.93;100.00;101053.44;4936421;28;20086;-82
2024/03/21 01:09:30;;;;;;;24.10;18.55;;;;;;;12.93;100.00;101058.69;4958733;28;20138;-84
2024/03/21 01:11:58;;;;;;;21.75;18.08;;;;;;;12.87;100.00;101062.28;4936973;29;20055;-82
2024/03/21 01:14:26;;;;;;;21.80;16.52;;;;;;;12.87;100.00;101051.78;4945013;28;20054;-82
2024/03/21 01:16:54;;;;;;;20.95;16.60;;;;;;;12.85;100.00;101057.06;4951733;28;20054;-83
2024/03/21 01:19:23;;;;;;;26.27;17.77;;;;;;;12.83;100.00;101050.09;4957131;28;20051;-82
2024/03/21 01:21:50;;;;;;;24.25;18.25;;;;;;;12.74;100.00;101054.53;4960974;28;20047;-83
2024/03/21 01:24:17;;;;;;;24.88;15.75;;;;;;;12.70;100.00;101058.09;4968234;28;20047;-82
2024/03/21 01:26:46;;;;;;;19.00;16.58;;;;;;;12.71;100.00;101053.69;4960303;28;20058;-82
2024/03/21 01:29:15;;;;;;;21.95;16.70;;;;;;;12.73;100.00;101055.41;4963855;28;20518;-82
2024/03/21 01:31:42;;;;;;;21.25;15.10;;;;;;;12.74;100.00;101053.66;4956018;28;20051;-83
2024/03/21 01:34:08;;;;;;;28.70;18.25;;;;;;;12.76;100.00;101043.16;4953918;28;20164;-84
2024/03/21 01:36:44;;;;;;;20.77;16.40;;;;;;;12.73;100.00;101044.91;4957453;28;20043;-83
2024/03/21 01:39:11;;;;;;;18.55;14.68;;;;;;;12.76;100.00;101046.63;4968442;28;20122;-82
2024/03/21 01:41:37;;;;;;;23.75;16.42;;;;;;;12.79;100.00;101038.72;4942880;28;20047;-82
2024/03/21 01:44:04;;;;;;;20.23;14.98;;;;;;;12.80;100.00;101036.97;4951617;28;20047;-82
2024/03/21 01:46:29;;;;;;;21.83;16.42;;;;;;;12.81;100.00;101036.09;4959674;28;20479;-83
2024/03/21 01:48:56;;;;;;;18.60;14.45;;;;;;;12.83;100.00;101031.69;4954854;28;20050;-83
2024/03/21 01:51:24;;;;;;;19.92;15.48;;;;;;;12.85;100.00;101033.41;4959963;28;20893;-83
2024/03/21 01:53:54;;;;;;;22.95;16.23;;;;;;;12.83;100.00;101021.19;4954838;28;20078;-82
2024/03/21 01:56:21;;;;;;;17.73;14.30;;;;;;;12.82;100.00;101022.91;4955136;28;20515;-82
2024/03/21 01:58:47;;;;;;;18.80;15.25;;;;;;;12.81;100.00;101023.81;4957040;28;20048;-83
2024/03/21 02:01:29;;;;;;;20.88;14.75;;;;;;;12.80;100.00;101024.72;4955444;28;20053;-83
2024/03/21 02:03:59;;;;;;;17.33;13.63;;;;;;;12.77;100.00;101019.47;4964928;28;20097;-82
2024/03/21 02:06:28;;;;;;;22.63;16.75;;;;;;;12.72;100.00;101019.56;4955152;28;20051;-84
2024/03/21 02:08:58;;;;;;;22.55;17.25;;;;;;;12.66;100.00;101017.00;4942516;28;20119;-82
2024/03/21 02:11:24;;;;;;;21.42;14.27;;;;;;;12.65;100.00;101015.25;4944113;28;20082;-82
2024/03/21 02:13:54;;;;;;;17.55;13.50;;;;;;;12.67;100.00;101015.22;4952117;28;20078;-82
2024/03/21 02:16:21;;;;;;;23.70;15.98;;;;;;;12.69;100.00;101018.72;4956940;28;20047;-83
2024/03/21 02:18:51;;;;;;;21.75;16.65;;;;;;;12.68;100.00;101020.44;4958982;28;20148;-83
2024/03/21 02:24:01;;;;;;;24.63;16.58;;;;;;;12.63;100.00;101009.13;4947696;28;20170;-82
2024/03/21 02:26:27;;;;;;;23.73;16.38;;;;;;;12.63;100.00;101013.53;4956673;28;20075;-82
2024/03/21 02:28:53;;;;;;;24.85;17.48;;;;;;;12.60;100.00;101014.44;4943195;28;20669;-82
2024/03/21 02:31:22;;;;;;;22.08;15.85;;;;;;;12.63;100.00;101003.88;4954234;28;20035;-82
2024/03/21 02:33:49;;;;;;;19.20;14.55;;;;;;;12.65;100.00;101010.00;4955107;28;20046;-83
2024/03/21 02:36:17;;;;;;;21.30;15.57;;;;;;;12.62;100.00;101003.91;4941257;28;20231;-85
2024/03/21 02:38:43;;;;;;;20.13;15.98;;;;;;;12.66;100.00;101000.34;4951367;28;20051;-82
2024/03/21 02:41:09;;;;;;;20.00;15.77;;;;;;;12.68;100.00;101009.09;4952061;28;20048;-84
2024/03/21 02:43:37;;;;;;;24.27;17.17;;;;;;;12.67;100.00;101002.97;4955848;28;20077;-84
2024/03/21 02:46:06;;;;;;;23.30;15.85;;;;;;;12.66;100.00;101010.84;4948088;28;20075;-82
2024/03/21 02:48:34;;;;;;;25.10;18.63;;;;;;;12.62;100.00;101015.28;4938173;28;20371;-82
2024/03/21 02:51:01;;;;;;;25.08;19.58;;;;;;;12.60;100.00;101014.44;4957339;28;20610;-82
2024/03/21 02:53:26;;;;;;;21.70;17.75;;;;;;;12.60;100.00;101018.81;4959750;28;20137;-82
2024/03/21 02:55:53;;;;;;;26.63;18.35;;;;;;;12.56;100.00;101016.22;4951311;28;20126;-85
2024/03/21 02:58:19;;;;;;;29.23;20.67;;;;;;;12.55;100.00;101021.47;4957863;28;20075;-84
2024/03/21 03:00:45;;;;;;;34.53;21.15;;;;;;;12.55;100.00;101025.00;4958387;28;20486;-83
2024/03/21 03:03:11;;;;;;;23.15;18.70;;;;;;;12.55;100.00;101010.97;4949921;28;20095;-82
2024/03/21 03:05:42;;;;;;;26.65;20.30;;;;;;;12.57;100.00;101019.72;4937716;28;20442;-83
2024/03/21 03:08:08;;;;;;;28.30;19.33;;;;;;;12.56;100.00;101017.97;4940283;28;20055;-81
2024/03/21 03:10:40;;;;;;;23.02;18.63;;;;;;;12.57;100.00;101019.72;4940401;29;20174;-83
2024/03/21 03:13:06;;;;;;;27.73;18.83;;;;;;;12.55;100.00;101022.38;4971028;28;20468;-84
2024/03/21 03:15:36;;;;;;;27.23;21.40;;;;;;;12.52;100.00;101022.38;4960885;28;20047;-82
2024/03/21 03:18:02;;;;;;;29.52;21.15;;;;;;;12.51;100.00;101025.88;4960413;28;20070;-82
2024/03/21 03:20:30;;;;;;;31.67;22.48;;;;;;;12.50;100.00;101020.66;4959624;28;20046;-83
2024/03/21 03:22:56;;;;;;;28.00;21.42;;;;;;;12.47;100.00;101018.09;4961114;28;20142;-83
2024/03/21 03:25:22;;;;;;;31.20;22.83;;;;;;;12.45;100.00;101022.47;4954597;28;20473;-81
2024/03/21 03:27:49;;;;;;;34.58;23.45;;;;;;;12.40;100.00;101017.28;4944643;28;20084;-82
2024/03/21 03:30:16;;;;;;;31.83;22.67;;;;;;;12.37;100.00;101023.44;4954369;28;20055;-83
2024/03/21 03:32:47;;;;;;;28.33;21.63;;;;;;;12.36;100.00;101026.94;4953820;28;20499;-83
2024/03/21 03:38:00;;;;;;;27.25;22.23;;;;;;;12.33;100.00;101036.59;4956225;28;20038;-82
2024/03/21 03:40:27;;;;;;;29.23;22.38;;;;;;;12.28;100.00;101030.53;4951754;28;20055;-83
2024/03/21 03:42:53;;;;;;;28.17;20.40;;;;;;;12.29;100.00;101034.91;4944639;28;20051;-82
2024/03/21 03:45:23;;;;;;;33.17;24.25;;;;;;;12.30;100.00;101044.50;4953507;28;20488;-82
2024/03/21 03:47:52;;;;;;;29.45;21.45;;;;;;;12.31;100.00;101035.75;4977539;28;20063;-83
2024/03/21 03:50:22;;;;;;;28.55;20.90;;;;;;;12.28;100.00;101035.78;4938069;28;20062;-82
2024/03/21 03:52:50;;;;;;;35.00;24.95;;;;;;;12.23;100.00;101043.72;4940483;28;20047;-82
2024/03/21 03:55:17;;;;;;;33.17;22.83;;;;;;;12.22;100.00;101042.81;4945809;28;20062;-82
2024/03/21 03:57:46;;;;;;;33.88;25.67;;;;;;;12.21;100.00;101043.69;4937715;29;20047;-83
2024/03/21 04:00:15;;;;;;;36.67;24.10;;;;;;;12.21;100.00;101043.69;4950231;28;20051;-82
2024/03/21 04:02:43;;;;;;;36.30;25.92;;;;;;;12.17;100.00;101047.25;4939084;29;20499;-83
2024/03/21 04:05:10;;;;;;;32.42;25.27;;;;;;;12.14;100.00;101046.44;4952359;28;20138;-82
2024/03/21 04:07:37;;;;;;;40.83;26.98;;;;;;;12.11;100.00;101049.94;4974060;28;20069;-83
2024/03/21 04:10:05;;;;;;;36.97;25.42;;;;;;;12.12;100.00;101048.19;4962811;28;20051;-81
2024/03/21 04:12:34;;;;;;;35.42;26.05;;;;;;;12.12;100.00;101042.94;4968358;28;20054;-81
2024/03/21 04:15:00;;;;;;;36.72;27.08;;;;;;;12.11;100.00;101049.06;4958468;28;20054;-83
2024/03/21 04:17:27;;;;;;;34.40;26.80;;;;;;;12.11;100.00;101052.56;4950263;28;20047;-83
2024/03/21 04:19:52;;;;;;;32.30;24.92;;;;;;;12.11;100.00;101049.94;4968926;28;20050;-83
2024/03/21 04:22:19;;;;;;;40.45;26.83;;;;;;;12.09;100.00;101046.44;4961153;28;20042;-81
2024/03/21 04:24:46;;;;;;;36.25;25.23;;;;;;;12.07;100.00;101051.72;4970684;28;20039;-83
2024/03/21 04:27:13;;;;;;;38.95;28.73;;;;;;;12.09;100.00;101059.56;4972258;28;20051;-83
2024/03/21 04:29:38;;;;;;;35.15;26.52;;;;;;;12.08;100.00;101060.44;4960296;28;20402;-84
2024/03/21 04:32:06;;;;;;;44.13;29.27;;;;;;;12.05;100.00;101069.22;4954009;28;20043;-81
2024/03/21 04:34:31;;;;;;;38.33;28.23;;;;;;;12.05;100.00;101065.72;4959759;28;20113;-83
2024/03/21 04:37:00;;;;;;;38.15;27.88;;;;;;;12.05;100.00;101071.84;4953545;28;20051;-83
2024/03/21 04:39:27;;;;;;;46.05;29.80;;;;;;;12.03;100.00;101071.00;4958288;28;20054;-81
2024/03/21 04:41:53;;;;;;;39.10;26.98;;;;;;;12.04;100.00;101079.72;4957358;28;20125;-84
2024/03/21 04:44:20;;;;;;;43.67;27.70;;;;;;;12.06;100.00;101077.97;4954409;28;20054;-82
2024/03/21 04:46:47;;;;;;;45.72;29.50;;;;;;;12.02;100.00;101074.50;4955494;28;20047;-82
2024/03/21 04:49:15;;;;;;;40.83;26.73;;;;;;;12.02;100.00;101081.47;4955138;28;20059;-82
2024/03/21 04:51:43;;;;;;;41.15;27.38;;;;;;;12.01;100.00;101078.00;4979734;28;20225;-83
2024/03/21 04:54:10;;;;;;;38.88;26.83;;;;;;;12.01;100.00;101077.16;4937517;29;20444;-82
2024/03/21 04:56:40;;;;;;;39.88;27.40;;;;;;;11.99;100.00;101078.91;4949577;28;20050;-83
2024/03/21 04:59:05;;;;;;;42.13;27.98;;;;;;;11.94;100.00;101073.63;4955190;28;20146;-81
2024/03/21 05:01:37;;;;;;;41.83;29.15;;;;;;;11.89;100.00;101078.94;4962224;28;20442;-82
2024/03/21 05:04:02;;;;;;;43.95;27.23;;;;;;;11.79;100.00;101093.00;4948109;28;20070;-82
2024/03/21 05:06:29;;;;;;;36.45;24.85;;;;;;;11.79;100.00;101089.53;4965752;28;20130;-82
2024/03/21 05:08:55;;;;;;;45.35;29.77;;;;;;;11.80;100.00;101096.47;4952578;28;20055;-84
2024/03/21 05:11:21;;;;;;;40.53;27.92;;;;;;;11.74;100.00;101090.41;4963400;28;20057;-83
2024/03/21 05:13:49;;;;;;;43.58;30.35;;;;;;;11.72;100.00;101094.81;4955097;28;20228;-83
2024/03/21 05:16:17;;;;;;;38.33;27.13;;;;;;;11.73;100.00;101093.94;4959361;28;20061;-83
2024/03/21 05:18:46;;;;;;;43.50;28.98;;;;;;;11.71;100.00;101095.69;4956709;28;20473;-84
2024/03/21 05:21:13;;;;;;;46.55;29.90;;;;;;;11.68;100.00;101102.69;4960480;28;20069;-83
2024/03/21 05:23:51;;;;;;;48.67;32.35;;;;;;;11.67;100.00;101087.84;4961184;28;20050;-82
2024/03/21 05:26:18;;;;;;;53.25;33.22;;;;;;;11.67;100.00;101095.72;4941638;28;20043;-82
2024/03/21 05:28:46;;;;;;;49.03;32.45;;;;;;;11.62;100.00;101092.25;4950524;28;20038;-83
2024/03/21 05:31:27;;;;;;;47.45;31.88;;;;;;;11.61;100.00;101094.00;4947135;28;20042;-82
2024/03/21 05:33:54;;;;;;;44.25;30.95;;;;;;;11.61;100.00;101078.25;4970002;28;20039;-82
2024/03/21 05:36:26;;;;;;;48.63;32.10;;;;;;;11.58;100.00;101086.16;4960944;28;20114;-82
2024/03/21 05:38:52;;;;;;;47.50;31.60;;;;;;;11.57;100.00;101087.88;4942179;28;20070;-84
2024/03/21 05:41:21;;;;;;;46.03;32.80;;;;;;;11.58;100.00;101094.00;4961360;28;20743;-83
2024/03/21 05:43:46;;;;;;;57.30;34.25;;;;;;;11.54;100.00;101095.78;4955718;28;20166;-84
2024/03/21 05:46:13;;;;;;;49.60;35.08;;;;;;;11.53;100.00;101101.91;4946566;28;20045;-83
2024/03/21 05:48:42;;;;;;;53.20;36.25;;;;;;;11.49;100.00;101100.19;4953321;28;20050;-81
2024/03/21 05:51:15;;;;;;;45.85;32.08;;;;;;;11.45;100.00;101089.72;4947902;28;20051;-84
2024/03/21 05:53:42;;;;;;;52.90;34.92;;;;;;;11.38;100.00;101075.75;4940813;28;20043;-80
2024/03/21 05:56:09;;;;;;;49.58;34.85;;;;;;;11.38;100.00;101075.75;4954102;28;20043;-84
2024/03/21 05:58:36;;;;;;;55.50;34.50;;;;;;;11.36;100.00;101075.78;4960935;28;20035;-82
2024/03/21 06:01:22;;;;;;;48.15;32.92;;;;;;;11.42;100.00;101082.75;4960342;28;20077;-82
2024/03/21 06:03:48;;;;;;;45.78;32.40;;;;;;;11.43;100.00;101089.72;4965679;28;20051;-84
2024/03/21 06:06:16;;;;;;;50.17;34.25;;;;;;;11.45;100.00;101090.59;4958844;28;20038;-83
2024/03/21 06:08:43;;;;;;;51.33;33.95;;;;;;;11.46;100.00;101096.69;4929497;29;20051;-84
2024/03/21 06:11:09;;;;;;;48.70;32.33;;;;;;;11.44;100.00;101112.44;4947938;28;20119;-84
2024/03/21 06:13:36;;;;;;;49.47;32.30;;;;;;;11.41;100.00;101110.69;4941039;28;20066;-82
2024/03/21 06:16:03;;;;;;;52.15;32.25;;;;;;;11.38;100.00;101104.59;4952866;28;20407;-85
2024/03/21 06:18:29;;;;;;;47.63;33.63;;;;;;;11.39;100.00;101098.47;4960755;28;20078;-86
2024/03/21 06:20:59;;;;;;;51.22;31.67;;;;;;;11.40;100.00;101110.72;4967783;28;20071;-84
2024/03/21 06:23:26;;;;;;;49.00;30.42;;;;;;;11.35;100.00;101115.97;4953805;28;20102;-82
2024/03/21 06:25:53;;;;;;;44.90;31.08;;;;;;;11.29;100.00;101113.41;4936402;29;20050;-84
2024/03/21 06:28:21;;;;;;;49.80;31.48;;;;;;;11.32;100.00;101120.38;4945454;28;20071;-83
2024/03/21 06:30:51;;;;;;;54.50;32.65;;;;;;;11.38;100.00;101120.31;4945670;29;20371;-82
2024/03/21 06:33:19;;;;;;;48.03;32.10;;;;;;;11.39;100.00;101122.06;4969588;28;20260;-82
2024/03/21 06:35:49;;;;;;;49.65;30.77;;;;;;;11.40;100.00;101129.91;4928323;29;20138;-83
2024/03/21 06:38:15;;;;;;;49.20;31.20;;;;;;;11.39;100.00;101128.22;4946453;28;20138;-82
2024/03/21 06:40:45;;;;;;;47.92;30.80;;;;;;;11.36;100.00;101119.47;4940600;29;20517;-81
2024/03/21 06:43:12;;;;;;;45.83;30.85;;;;;;;11.37;100.00;101116.84;4953191;28;20051;-82
2024/03/21 06:45:39;;;;;;;44.42;29.00;;;;;;;11.40;100.00;101129.06;4947818;28;20451;-83
2024/03/21 06:48:05;;;;;;;49.20;31.35;;;;;;;11.44;100.00;101135.16;4944799;28;20054;-82
2024/03/21 06:50:32;;;;;;;41.25;26.45;;;;;;;11.43;100.00;101139.53;4938139;28;20047;-79
2024/03/21 06:52:58;;;;;;;41.53;25.80;;;;;;;11.38;100.00;101128.19;4953539;28;20138;-83
2024/03/21 06:55:28;;;;;;;36.42;24.35;;;;;;;11.44;100.00;101125.53;4936979;28;20048;-83
2024/03/21 06:57:58;;;;;;;32.40;20.75;;;;;;;11.48;100.00;101124.66;4969789;28;20078;-84
2024/03/21 07:00:27;;;;;;;36.17;21.02;;;;;;;11.49;100.00;101118.53;4953510;28;20051;-81
2024/03/21 07:02:55;;;;;;;29.05;20.70;;;;;;;11.53;100.00;101117.63;4937162;28;20055;-83
2024/03/21 07:05:23;;;;;;;31.17;20.50;;;;;;;11.59;100.00;101125.47;4954160;28;20044;-82
2024/03/21 07:07:54;;;;;;;31.33;20.33;;;;;;;11.63;100.00;101133.31;4955693;28;20059;-83
2024/03/21 07:10:24;;;;;;;35.88;20.70;;;;;;;11.69;100.00;101134.16;4942208;28;20139;-83
2024/03/21 07:12:49;;;;;;;29.92;19.70;;;;;;;11.72;100.00;101128.91;4941750;28;20055;-82
2024/03/21 07:15:18;;;;;;;28.50;17.13;;;;;;;11.74;100.00;101134.13;4966078;28;20503;-86
2024/03/21 07:17:43;;;;;;;34.40;17.60;;;;;;;11.73;100.00;101132.38;4949261;28;20043;-82
2024/03/21 07:20:13;;;;;;;22.15;13.63;;;;;;;11.74;100.00;101126.25;4969659;28;20128;-82
2024/03/21 07:22:59;;;;;;;18.73;13.25;;;;;;;11.74;100.00;101129.75;4938819;28;20051;-84
2024/03/21 07:25:27;;;;;;;18.83;12.43;;;;;;;11.69;100.00;101141.16;4960353;28;20054;-82
2024/03/21 07:27:53;;;;;;;21.33;12.18;;;;;;;11.67;100.00;101141.16;4956403;28;20658;-80
2024/03/21 07:30:19;;;;;;;16.48;10.57;;;;;;;11.66;100.00;101149.03;4946911;28;20058;-81
2024/03/21 07:32:51;;;;;;;12.65;9.38;;;;;;;11.62;100.00;101149.94;4956933;28;20265;-84
2024/03/21 07:35:18;;;;;;;12.00;9.20;;;;;;;11.59;100.00;101149.06;4966539;28;20044;-84
2024/03/21 07:37:47;;;;;;;12.55;8.95;;;;;;;11.61;100.00;101156.06;4954748;28;20046;-82
2024/03/21 07:40:18;;;;;;;10.88;8.10;;;;;;;11.66;100.00;101170.03;4932135;28;20049;-84
2024/03/21 07:42:49;;;;;;;14.63;7.63;;;;;;;11.72;100.00;101159.47;4958379;28;20082;-83
2024/03/21 07:45:26;;;;;;;10.60;7.32;;;;;;;11.73;100.00;101167.38;4955836;28;20055;-83
2024/03/21 07:47:51;;;;;;;6.68;5.50;;;;;;;11.52;100.00;101175.31;4962092;28;20102;-84
2024/03/21 07:50:18;;;;;;;6.80;5.50;;;;;;;11.55;100.00;101176.19;4967975;28;20099;-84
2024/03/21 07:52:47;;;;;;;5.90;4.63;;;;;;;11.43;100.00;101173.59;4955826;28;20042;-83
2024/03/21 07:55:16;;;;;;;6.13;5.40;;;;;;;11.56;100.00;101180.56;4957679;28;20125;-84
2024/03/21 07:57:48;;;;;;;6.88;5.20;;;;;;;11.44;100.00;101185.84;4961023;28;20049;-82
2024/03/21 08:00:21;;;;;;;5.57;4.88;;;;;;;11.37;100.00;101189.38;4950233;28;20053;-85
2024/03/21 08:02:47;;;;;;;7.40;5.05;;;;;;;11.30;100.00;101187.63;4955705;28;20073;-83
2024/03/21 08:05:14;;;;;;;8.77;6.30;;;;;;;11.45;100.00;101184.09;4927885;28;20043;-79
2024/03/21 08:07:39;;;;;;;7.57;6.40;;;;;;;11.97;100.00;101209.22;4955267;28;20082;-82
2024/03/21 08:10:07;;;;;;;8.80;6.28;;;;;;;11.51;100.00;101218.16;4947566;28;20502;-83
2024/03/21 08:12:33;;;;;;;8.60;6.50;;;;;;;11.28;100.00;101220.84;4965779;28;20032;-82
2024/03/21 08:15:08;;;;;;;9.38;6.97;;;;;;;11.71;100.00;101221.56;4967676;28;20047;-81
2024/03/21 08:17:34;;;;;;;8.18;6.05;;;;;;;11.38;100.00;101235.66;4955908;28;20055;-81
2024/03/21 08:20:02;;;;;;;6.82;5.53;;;;;;;10.91;100.00;101238.38;4954519;28;20065;-81
2024/03/21 08:22:28;;;;;;;7.40;6.43;;;;;;;10.73;100.00;101246.25;4941355;28;20060;-82
2024/03/21 08:24:55;;;;;;;8.95;7.13;;;;;;;10.63;100.00;101252.38;4966667;28;20066;-83
2024/03/21 08:27:22;;;;;;;10.68;8.90;;;;;;;10.68;100.00;101266.34;4975611;28;20051;-83
2024/03/21 08:29:53;;;;;;;15.80;10.32;;;;;;;10.27;100.00;101276.72;4958744;28;20094;-80
2024/03/21 08:32:21;;;;;;;10.77;8.25;;;;;;;10.32;100.00;101287.19;4955574;28;20087;-84
2024/03/21 08:34:49;;;;;;;10.07;8.00;;;;;;;10.24;100.00;101283.69;4960270;28;20051;-82
2024/03/21 08:37:14;;;;;;;10.95;8.13;;;;;;;10.02;100.00;101287.97;4953761;28;20047;-83
2024/03/21 08:39:43;;;;;;;11.50;8.68;;;;;;;9.96;100.00;101295.78;4938264;28;20054;-81
2024/03/21 08:42:12;;;;;;;14.57;9.25;;;;;;;9.94;100.00;101288.81;4922658;29;20054;-82
2024/03/21 08:44:42;;;;;;;12.73;9.45;;;;;;;9.91;100.00;101288.81;4960427;28;20061;-84
2024/03/21 08:47:08;;;;;;;12.07;9.10;;;;;;;10.03;100.00;101294.97;4957717;28;20042;-81
2024/03/21 08:49:43;;;;;;;10.95;8.82;;;;;;;10.05;100.00;101288.84;4956393;28;20122;-83
2024/03/21 08:52:09;;;;;;;13.23;7.78;;;;;;;10.08;100.00;101304.56;4944815;29;20567;-83
2024/03/21 08:54:39;;;;;;;12.55;8.13;;;;;;;10.07;100.00;101299.31;4964673;28;20119;-81
2024/03/21 08:57:05;;;;;;;10.13;7.65;;;;;;;10.12;100.00;101305.44;4953887;28;20046;-82
2024/03/21 08:59:33;;;;;;;9.18;7.13;;;;;;;9.87;100.00;101312.34;4955622;28;20508;-83
2024/03/21 09:02:04;;;;;;;11.60;7.55;;;;;;;9.91;100.00;101304.50;4968704;28;20048;-79
2024/03/21 09:04:33;;;;;;;11.13;8.00;;;;;;;9.91;100.00;101317.56;4957812;28;20055;-81
2024/03/21 09:06:59;;;;;;;10.43;6.82;;;;;;;9.99;100.00;101316.75;4969474;28;20046;-81
2024/03/21 09:09:26;;;;;;;12.57;7.70;;;;;;;9.84;100.00;101315.81;4952122;28;20068;-82
2024/03/21 09:11:54;;;;;;;10.52;7.15;;;;;;;9.63;100.00;101332.22;4929212;28;20102;-81
2024/03/21 09:14:21;;;;;;;8.73;6.85;;;;;;;9.54;100.00;101342.63;4957069;28;20523;-82
2024/03/21 09:16:49;;;;;;;11.18;6.35;;;;;;;9.43;100.00;101324.28;4945243;28;20043;-81
2024/03/21 09:19:16;;;;;;;9.13;5.68;;;;;;;9.20;100.00;101347.63;4957606;28;20471;-82
2024/03/21 09:21:43;;;;;;;7.40;5.47;;;;;;;9.12;100.00;101349.31;4964390;28;20051;-83
2024/03/21 09:24:11;;;;;;;8.20;5.40;;;;;;;9.13;100.00;101361.50;4963001;28;20109;-82
2024/03/21 09:26:38;;;;;;;9.88;5.38;;;;;;;8.92;100.00;101357.84;4953883;28;20051;-84
2024/03/21 09:29:05;;;;;;;5.32;4.60;;;;;;;8.96;100.00;101366.56;4952859;28;20043;-86
2024/03/21 09:31:30;;;;;;;9.20;4.88;;;;;;;8.98;100.00;101359.63;4961089;28;20051;-83
2024/03/21 09:34:00;;;;;;;7.72;4.45;;;;;;;9.17;100.00;101364.16;4970722;28;20356;-84
2024/03/21 09:36:26;;;;;;;7.72;4.75;;;;;;;9.39;100.00;101375.63;4968200;28;20058;-82
2024/03/21 09:38:54;;;;;;;7.80;4.47;;;;;;;9.52;100.00;101379.22;4972496;28;20036;-84
2024/03/21 09:41:28;;;;;;;12.50;4.32;;;;;;;9.50;100.00;101383.53;4946196;28;20051;-82
2024/03/21 09:44:06;;;;;;;5.45;2.97;;;;;;;9.33;100.00;101385.16;4967428;28;20054;-82
2024/03/21 09:46:38;;;;;;;4.75;3.20;;;;;;;9.18;100.00;101399.84;4957296;28;20507;-83
2024/03/21 09:49:05;;;;;;;3.22;2.83;;;;;;;9.23;100.00;101392.94;4961013;28;20475;-83
2024/03/21 09:51:40;;;;;;;4.32;2.78;;;;;;;9.30;100.00;101406.06;4960906;28;20507;-82
2024/03/21 09:54:14;;;;;;;7.18;4.80;;;;;;;9.31;100.00;101403.47;4974574;28;20607;-83
2024/03/21 09:56:42;;;;;;;5.40;3.13;;;;;;;9.35;100.00;101420.03;4960688;28;20071;-83
2024/03/21 09:59:13;;;;;;;6.15;3.50;;;;;;;9.39;100.00;101416.59;4964827;28;20038;-83
2024/03/21 10:01:46;;;;;;;7.85;3.60;;;;;;;9.31;100.00;101406.06;4959467;28;20052;-81
2024/03/21 10:04:13;;;;;;;5.07;3.63;;;;;;;9.28;100.00;101406.03;4955615;28;20051;-83
2024/03/21 10:06:47;;;;;;;7.00;3.50;;;;;;;9.38;100.00;101412.22;4959652;28;20059;-82
2024/03/21 10:09:15;;;;;;;10.40;3.28;;;;;;;9.33;100.00;101403.47;4944327;28;20558;-83
2024/03/21 10:11:41;;;;;;;11.82;3.60;;;;;;;9.43;100.00;101416.59;4958911;28;20055;-82
2024/03/21 10:14:15;;;;;;;7.85;4.15;;;;;;;9.35;100.00;101410.44;4953639;28;20125;-84
2024/03/21 10:16:48;;;;;;;8.85;3.83;;;;;;;9.41;100.00;101422.69;4964937;28;20047;-82
2024/03/21 10:19:16;;;;;;;6.35;3.33;;;;;;;9.50;100.00;101409.69;4953425;28;20046;-82
2024/03/21 10:21:42;;;;;;;4.57;3.33;;;;;;;9.46;100.00;101423.59;4968778;28;20236;-82
2024/03/21 10:24:09;;;;;;;5.10;3.22;;;;;;;9.52;100.00;101420.19;4957678;28;20068;-81
2024/03/21 10:26:34;;;;;;;11.90;4.00;;;;;;;9.51;100.00;101424.50;4953792;28;20074;-82
2024/03/21 10:29:01;;;;;;;10.82;3.30;;;;;;;9.56;100.00;101424.56;4944380;28;20484;-82
2024/03/21 10:31:34;;;;;;;13.90;3.70;;;;;;;9.60;100.00;101437.66;4948502;28;20107;-82
2024/03/21 10:34:01;;;;;;;3.80;3.15;;;;;;;9.43;100.00;101432.28;4966046;28;20174;-82
2024/03/21 10:36:27;;;;;;;5.03;3.20;;;;;;;9.48;100.00;101432.34;4947802;28;20047;-81
2024/03/21 10:38:54;;;;;;;11.10;4.10;;;;;;;9.59;100.00;101432.41;4957079;28;20672;-83
2024/03/21 10:41:28;;;;;;;6.07;3.15;;;;;;;9.63;100.00;101436.78;4953259;28;20467;-82
2024/03/21 10:44:02;;;;;;;6.68;3.10;;;;;;;9.81;100.00;101443.03;4971384;28;20086;-82
2024/03/21 10:46:30;;;;;;;;;;;;;;;9.88;100.00;101440.47;4955827;28;20152;-81
2024/03/21 10:48:58;;;;;;;5.50;3.22;;;;;;;9.83;100.00;101441.28;4956760;28;20375;-82
2024/03/21 10:51:24;;;;;;;8.48;3.33;;;;;;;9.79;100.00;101447.38;4956630;28;20476;-82
2024/03/21 10:54:03;;;;;;;7.43;2.85;;;;;;;9.73;100.00;101453.44;4952450;28;20137;-84
2024/03/21 10:56:42;;;;;;;6.65;3.17;;;;;;;9.79;100.00;101456.13;4948453;28;20039;-82
2024/03/21 10:59:16;;;;;;;4.70;2.95;;;;;;;9.88;100.00;101455.28;4940124;29;20046;-83
2024/03/21 11:01:44;;;;;;;9.80;3.25;;;;;;;9.93;100.00;101454.47;4939620;28;20051;-83
2024/03/21 11:04:15;;;;;;;11.50;4.10;;;;;;;10.03;100.00;101463.22;4960215;28;20055;-82
2024/03/21 11:06:43;;;;;;;7.70;2.97;;;;;;;10.06;100.00;101465.00;4960275;28;20059;-81
2024/03/21 11:09:12;;;;;;;7.85;4.05;;;;;;;10.05;100.00;101456.28;4950508;29;20055;-84
2024/03/21 11:11:38;;;;;;;6.57;3.17;;;;;;;10.13;100.00;101463.28;4964418;28;20054;-82
2024/03/21 11:14:07;;;;;;;5.18;2.63;;;;;;;10.11;100.00;101463.28;4965030;28;20062;-83
2024/03/21 11:16:33;;;;;;;6.57;2.78;;;;;;;10.17;100.00;101465.03;4958557;28;20054;-83